Time;durP1;ratioP1;P1;durP2;ratioP2;P2;SDS_P1;SDS_P2;PMS_P1;PMS_P2;Temp;Humidity;BMP_temperature;BMP_pressure;BME280_temperature;BME280_humidity;BME280_pressure;Samples;Min_cycle;Max_cycle;Signal;HPM_P1;HPM_P2
2024/01/06 00:01:22;;;;;;;2.17;1.17;;;9.00;99.90;;;;;;5028855;28;20448;-45
2024/01/06 00:03:50;;;;;;;1.93;1.27;;;9.00;99.90;;;;;;5028086;28;20472;-44
2024/01/06 00:06:19;;;;;;;1.90;1.23;;;9.00;99.90;;;;;;5028532;28;20926;-45
2024/01/06 00:08:53;;;;;;;2.47;1.13;;;9.00;99.90;;;;;;5024296;28;20909;-44
2024/01/06 00:11:21;;;;;;;1.70;1.10;;;9.00;99.90;;;;;;5025437;28;20455;-44
2024/01/06 00:13:51;;;;;;;2.40;1.13;;;8.90;99.90;;;;;;5024881;28;20827;-44
2024/01/06 00:16:19;;;;;;;3.13;1.27;;;9.00;99.90;;;;;;5029212;28;20428;-44
2024/01/06 00:18:48;;;;;;;1.40;0.90;;;8.90;99.90;;;;;;5028241;28;20530;-45
2024/01/06 00:21:17;;;;;;;1.60;0.90;;;9.00;99.90;;;;;;5022343;28;20978;-47
2024/01/06 00:23:45;;;;;;;1.50;1.00;;;9.00;99.90;;;;;;5022131;28;20864;-46
2024/01/06 00:26:13;;;;;;;1.73;1.00;;;9.00;99.90;;;;;;5024109;28;20436;-51
2024/01/06 00:28:41;;;;;;;1.90;1.30;;;9.00;99.90;;;;;;5019651;28;20472;-47
2024/01/06 00:31:11;;;;;;;1.60;1.20;;;9.00;99.90;;;;;;5028763;28;20463;-46
2024/01/06 00:33:39;;;;;;;1.50;1.00;;;9.00;99.90;;;;;;5021580;28;20839;-43
2024/01/06 00:36:08;;;;;;;2.90;1.07;;;8.90;99.90;;;;;;5027980;28;20530;-44
2024/01/06 00:38:36;;;;;;;1.77;1.00;;;9.00;99.90;;;;;;5024282;28;20580;-44
2024/01/06 00:41:05;;;;;;;1.80;0.90;;;8.90;99.90;;;;;;5022140;28;21003;-44
2024/01/06 00:43:33;;;;;;;1.70;0.90;;;8.90;99.90;;;;;;5024717;28;20475;-44
2024/01/06 00:46:01;;;;;;;1.90;1.30;;;8.90;99.90;;;;;;5027983;28;20432;-44
2024/01/06 00:48:31;;;;;;;1.67;1.00;;;8.90;99.90;;;;;;5027562;28;20454;-44
2024/01/06 00:50:59;;;;;;;1.30;0.77;;;8.90;99.90;;;;;;5020862;28;20456;-45
2024/01/06 00:53:27;;;;;;;1.80;1.20;;;8.90;99.90;;;;;;5024511;28;21001;-44
2024/01/06 00:55:56;;;;;;;1.63;1.30;;;8.90;99.90;;;;;;5004982;28;20420;-44
2024/01/06 00:58:24;;;;;;;1.40;1.03;;;8.90;99.90;;;;;;5026197;28;20471;-44
2024/01/06 01:00:52;;;;;;;1.53;0.90;;;8.90;99.90;;;;;;5025633;28;20476;-44
2024/01/06 01:03:20;;;;;;;2.30;1.40;;;8.90;99.90;;;;;;5027430;28;20460;-44
2024/01/06 01:05:50;;;;;;;2.93;1.57;;;8.90;99.90;;;;;;5026127;28;20455;-44
2024/01/06 01:08:18;;;;;;;2.27;1.20;;;8.90;99.90;;;;;;5026214;28;20835;-44
2024/01/06 01:10:46;;;;;;;2.13;1.30;;;8.90;99.90;;;;;;5021644;28;20506;-45
2024/01/06 01:13:14;;;;;;;1.70;1.30;;;8.90;99.90;;;;;;5027424;28;20472;-44
2024/01/06 01:15:42;;;;;;;2.00;1.40;;;8.90;99.90;;;;;;5025960;28;20776;-43
2024/01/06 01:18:10;;;;;;;2.90;1.77;;;8.90;99.90;;;;;;5009570;28;20550;-43
2024/01/06 01:20:41;;;;;;;2.20;1.73;;;8.90;99.90;;;;;;5025922;28;20471;-45
2024/01/06 01:23:11;;;;;;;2.17;1.23;;;8.90;99.90;;;;;;5025403;28;20804;-42
2024/01/06 01:25:39;;;;;;;1.97;1.20;;;8.90;99.90;;;;;;5026508;28;20435;-44
2024/01/06 01:28:07;;;;;;;2.40;1.40;;;8.90;99.90;;;;;;5009772;28;20470;-44
2024/01/06 01:30:35;;;;;;;2.23;1.57;;;8.90;99.90;;;;;;5017949;28;20457;-45
2024/01/06 01:33:04;;;;;;;3.17;2.30;;;8.90;99.90;;;;;;5022661;28;20468;-42
2024/01/06 01:35:33;;;;;;;2.17;1.30;;;8.90;99.90;;;;;;5025197;28;20466;-45
2024/01/06 01:38:01;;;;;;;2.20;1.60;;;8.90;99.90;;;;;;5025915;28;20463;-45
2024/01/06 01:40:30;;;;;;;3.60;1.90;;;8.90;99.90;;;;;;5024012;28;20482;-44
2024/01/06 01:42:58;;;;;;;3.50;1.43;;;8.90;99.90;;;;;;5026583;28;20460;-44
2024/01/06 01:45:26;;;;;;;1.80;1.23;;;8.90;99.90;;;;;;5017872;28;20459;-44
2024/01/06 01:47:55;;;;;;;1.87;1.10;;;8.90;99.90;;;;;;5026802;28;20473;-45
2024/01/06 01:50:27;;;;;;;2.13;1.40;;;8.90;99.90;;;;;;5027202;28;20451;-44
2024/01/06 01:52:55;;;;;;;1.40;0.87;;;8.90;99.90;;;;;;5001246;28;21037;-43
2024/01/06 01:55:24;;;;;;;2.20;1.40;;;8.90;99.90;;;;;;5027494;28;20459;-45
2024/01/06 01:57:54;;;;;;;2.70;1.33;;;8.90;99.90;;;;;;5026712;28;20837;-45
2024/01/06 02:00:22;;;;;;;1.90;1.27;;;8.90;99.90;;;;;;5007209;28;20956;-45
2024/01/06 02:02:54;;;;;;;2.67;1.30;;;8.90;99.90;;;;;;5026351;28;20470;-46
2024/01/06 02:05:22;;;;;;;3.40;2.20;;;8.90;99.90;;;;;;5020403;28;21029;-44
2024/01/06 02:07:51;;;;;;;1.67;0.90;;;8.90;99.90;;;;;;5024160;28;20476;-44
2024/01/06 02:10:19;;;;;;;2.00;1.50;;;8.90;99.90;;;;;;5027195;28;20451;-46
2024/01/06 02:12:48;;;;;;;2.67;2.00;;;8.90;99.90;;;;;;5029518;28;20456;-46
2024/01/06 02:15:18;;;;;;;2.17;1.83;;;8.90;99.90;;;;;;5028025;28;20944;-44
2024/01/06 02:17:46;;;;;;;1.80;1.00;;;8.90;99.90;;;;;;5030426;28;20451;-44
2024/01/06 02:20:19;;;;;;;2.10;1.60;;;8.90;99.90;;;;;;5023370;28;20876;-43
2024/01/06 02:22:49;;;;;;;1.80;1.07;;;8.90;99.90;;;;;;5028918;28;20533;-45
2024/01/06 02:25:18;;;;;;;2.00;1.47;;;8.90;99.90;;;;;;5028133;28;20813;-45
2024/01/06 02:27:46;;;;;;;1.70;1.30;;;8.90;99.90;;;;;;5030393;28;20468;-43
2024/01/06 02:30:14;;;;;;;1.60;0.90;;;8.90;99.90;;;;;;5028556;28;20464;-43
2024/01/06 02:32:43;;;;;;;1.93;1.00;;;8.90;99.90;;;;;;5029425;28;20959;-44
2024/01/06 02:35:11;;;;;;;2.13;1.33;;;8.90;99.90;;;;;;5030040;28;20467;-44
2024/01/06 02:37:39;;;;;;;2.57;1.50;;;8.90;99.90;;;;;;5029463;28;20546;-44
2024/01/06 02:40:10;;;;;;;1.63;1.20;;;8.90;99.90;;;;;;5025620;28;20490;-44
2024/01/06 02:42:39;;;;;;;2.77;1.30;;;8.90;99.90;;;;;;5021840;28;20542;-44
2024/01/06 02:45:09;;;;;;;1.80;1.00;;;8.90;99.90;;;;;;5027299;28;20476;-45
2024/01/06 02:47:37;;;;;;;3.50;1.63;;;8.90;99.90;;;;;;5028014;28;20985;-44
2024/01/06 02:50:07;;;;;;;1.70;1.03;;;8.90;99.90;;;;;;5030138;28;20444;-44
2024/01/06 02:52:35;;;;;;;2.67;2.00;;;8.90;99.90;;;;;;5023217;28;20884;-44
2024/01/06 02:55:03;;;;;;;1.73;0.93;;;8.90;99.90;;;;;;5030294;28;20497;-44
2024/01/06 02:57:33;;;;;;;2.03;1.47;;;8.90;99.90;;;;;;5029793;28;20491;-45
2024/01/06 03:00:01;;;;;;;2.23;1.57;;;8.90;99.90;;;;;;5027338;28;20484;-43
2024/01/06 03:02:29;;;;;;;2.23;1.53;;;8.90;99.90;;;;;;5029594;28;20520;-43
2024/01/06 03:04:57;;;;;;;3.50;2.30;;;8.80;99.90;;;;;;5029568;28;21096;-44
2024/01/06 03:07:25;;;;;;;2.40;1.70;;;8.90;99.90;;;;;;5027186;28;20608;-45
2024/01/06 03:09:53;;;;;;;1.80;1.10;;;8.80;99.90;;;;;;5030738;28;20451;-45
2024/01/06 03:12:21;;;;;;;3.40;2.63;;;8.90;99.90;;;;;;5030443;28;20468;-44
2024/01/06 03:14:51;;;;;;;2.27;1.57;;;8.90;99.90;;;;;;5026355;28;20527;-44
2024/01/06 03:17:19;;;;;;;3.33;1.93;;;8.90;99.90;;;;;;5029921;28;20650;-44
2024/01/06 03:19:47;;;;;;;2.13;1.57;;;8.90;99.90;;;;;;5029749;28;20979;-44
2024/01/06 03:22:16;;;;;;;1.90;1.20;;;8.80;99.90;;;;;;5028750;28;20872;-42
2024/01/06 03:24:44;;;;;;;2.27;1.57;;;8.80;99.90;;;;;;5027470;28;21007;-45
2024/01/06 03:27:12;;;;;;;2.30;1.53;;;8.80;99.90;;;;;;5029255;28;20589;-45
2024/01/06 03:29:41;;;;;;;2.23;1.40;;;8.80;99.90;;;;;;5026418;28;20451;-46
2024/01/06 03:32:10;;;;;;;2.33;2.03;;;8.80;99.90;;;;;;5029266;28;20518;-44
2024/01/06 03:34:38;;;;;;;1.80;1.10;;;8.80;99.90;;;;;;5022383;28;20796;-45
2024/01/06 03:37:06;;;;;;;3.83;2.13;;;8.80;99.90;;;;;;5024230;28;20464;-44
2024/01/06 03:39:34;;;;;;;2.67;1.70;;;8.80;99.90;;;;;;5029085;28;20436;-45
2024/01/06 03:42:03;;;;;;;2.03;1.43;;;8.80;99.90;;;;;;5022200;28;21003;-44
2024/01/06 03:44:33;;;;;;;2.07;1.83;;;8.80;99.90;;;;;;5020985;28;20842;-44
2024/01/06 03:47:01;;;;;;;2.03;1.43;;;8.80;99.90;;;;;;5027865;28;20465;-44
2024/01/06 03:49:31;;;;;;;2.10;1.13;;;8.80;99.90;;;;;;5027915;28;20876;-44
2024/01/06 03:51:59;;;;;;;1.93;1.50;;;8.80;99.90;;;;;;5028423;28;20459;-44
2024/01/06 03:54:27;;;;;;;2.63;1.40;;;8.80;99.90;;;;;;5023597;28;20463;-45
2024/01/06 03:56:56;;;;;;;2.30;1.53;;;8.80;99.90;;;;;;5028457;28;20995;-43
2024/01/06 03:59:24;;;;;;;1.40;0.87;;;8.80;99.90;;;;;;5025805;28;20448;-44
2024/01/06 04:01:52;;;;;;;2.20;1.30;;;8.80;99.90;;;;;;4997239;28;20579;-44
2024/01/06 04:04:21;;;;;;;1.70;1.13;;;8.80;99.90;;;;;;5028442;28;20437;-44
2024/01/06 04:06:51;;;;;;;1.97;1.30;;;8.80;99.90;;;;;;5026626;28;20441;-44
2024/01/06 04:09:19;;;;;;;2.00;1.60;;;8.80;99.90;;;;;;5028357;28;20448;-44
2024/01/06 04:11:47;;;;;;;1.60;0.90;;;8.80;99.90;;;;;;5022242;28;20865;-44
2024/01/06 04:14:16;;;;;;;1.97;0.97;;;8.80;99.90;;;;;;5025896;28;20452;-43
2024/01/06 04:16:44;;;;;;;1.90;1.23;;;8.80;99.90;;;;;;5027603;28;20455;-44
2024/01/06 04:19:13;;;;;;;1.70;1.17;;;8.80;99.90;;;;;;5024503;28;20463;-44
2024/01/06 04:21:41;;;;;;;1.60;1.20;;;8.80;99.90;;;;;;5026637;28;20496;-44
2024/01/06 04:24:11;;;;;;;2.23;1.63;;;8.80;99.90;;;;;;5024703;28;20541;-44
2024/01/06 04:26:39;;;;;;;2.90;1.90;;;8.80;99.90;;;;;;5027969;28;20458;-44
2024/01/06 04:29:08;;;;;;;2.63;1.27;;;8.80;99.90;;;;;;5025712;28;20861;-44
2024/01/06 04:31:36;;;;;;;1.93;1.47;;;8.80;99.90;;;;;;5010082;28;20460;-44
2024/01/06 04:34:04;;;;;;;2.47;1.40;;;8.80;99.90;;;;;;5018400;28;20426;-44
2024/01/06 04:36:32;;;;;;;2.47;1.40;;;8.80;99.90;;;;;;5026186;28;20436;-44
2024/01/06 04:39:01;;;;;;;2.80;2.13;;;8.80;99.90;;;;;;5021042;28;20483;-44
2024/01/06 04:41:30;;;;;;;3.30;1.50;;;8.80;99.90;;;;;;5027845;28;20496;-44
2024/01/06 04:43:59;;;;;;;3.33;1.93;;;8.80;99.90;;;;;;5024096;28;20470;-44
2024/01/06 04:46:27;;;;;;;2.50;1.70;;;8.80;99.90;;;;;;5028090;28;20879;-44
2024/01/06 04:48:55;;;;;;;2.00;1.10;;;8.80;99.90;;;;;;5026007;28;20457;-44
2024/01/06 04:51:23;;;;;;;3.00;1.97;;;8.80;99.90;;;;;;5026684;28;20488;-44
2024/01/06 04:53:52;;;;;;;1.70;1.40;;;8.80;99.90;;;;;;5025581;28;20472;-44
2024/01/06 04:56:20;;;;;;;3.43;2.23;;;8.80;99.90;;;;;;5027820;28;20446;-44
2024/01/06 04:58:49;;;;;;;2.00;1.20;;;8.80;99.90;;;;;;5024382;28;21013;-45
2024/01/06 05:01:17;;;;;;;1.97;1.20;;;8.80;99.90;;;;;;5021623;28;20468;-45
2024/01/06 05:03:46;;;;;;;2.10;1.17;;;8.80;99.90;;;;;;5027228;28;20830;-45
2024/01/06 05:06:14;;;;;;;3.73;2.17;;;8.80;99.90;;;;;;5027999;28;20436;-44
2024/01/06 05:08:44;;;;;;;2.20;1.20;;;8.80;99.90;;;;;;5024101;28;21097;-42
2024/01/06 05:11:13;;;;;;;2.30;1.57;;;8.80;99.90;;;;;;5028273;28;20459;-45
2024/01/06 05:13:41;;;;;;;2.00;1.30;;;8.80;99.90;;;;;;5023582;28;21015;-47
2024/01/06 05:16:11;;;;;;;2.30;1.40;;;8.80;99.90;;;;;;5028117;28;20523;-47
2024/01/06 05:18:41;;;;;;;1.97;1.23;;;8.80;99.90;;;;;;5020432;28;20488;-48
2024/01/06 05:21:09;;;;;;;2.00;1.63;;;8.80;99.90;;;;;;5023839;28;20854;-45
2024/01/06 05:23:38;;;;;;;3.43;1.60;;;8.80;99.90;;;;;;5025480;28;20484;-48
2024/01/06 05:26:06;;;;;;;3.30;2.10;;;8.80;99.90;;;;;;5027033;28;20938;-47
2024/01/06 05:28:34;;;;;;;4.33;2.80;;;8.80;99.90;;;;;;5022782;28;20459;-48
2024/01/06 05:31:02;;;;;;;3.30;1.93;;;8.80;99.90;;;;;;5023261;28;21262;-47
2024/01/06 05:33:32;;;;;;;2.30;1.33;;;8.80;99.90;;;;;;5017556;28;20466;-46
2024/01/06 05:36:00;;;;;;;2.10;1.30;;;8.80;99.90;;;;;;5024675;28;20550;-48
2024/01/06 05:38:28;;;;;;;3.47;2.07;;;8.80;99.90;;;;;;5022379;28;20464;-47
2024/01/06 05:40:57;;;;;;;2.50;1.53;;;8.80;99.90;;;;;;5025289;28;20464;-48
2024/01/06 05:43:25;;;;;;;3.77;2.00;;;8.80;99.90;;;;;;5022760;28;20969;-47
2024/01/06 05:45:53;;;;;;;2.50;1.77;;;8.80;99.90;;;;;;5024906;28;20429;-48
2024/01/06 05:48:21;;;;;;;4.10;1.43;;;8.80;99.90;;;;;;5023430;28;20466;-48
2024/01/06 05:50:52;;;;;;;1.70;1.20;;;8.80;99.90;;;;;;5029386;28;20452;-45
2024/01/06 05:53:20;;;;;;;2.47;1.67;;;8.80;99.90;;;;;;5027511;28;20563;-46
2024/01/06 05:55:48;;;;;;;4.53;2.17;;;8.70;99.90;;;;;;5027079;28;20806;-46
2024/01/06 05:58:17;;;;;;;4.17;2.40;;;8.80;99.90;;;;;;5030487;28;21007;-47
2024/01/06 06:00:45;;;;;;;1.93;1.30;;;8.70;99.90;;;;;;5028543;28;20478;-47
2024/01/06 06:03:13;;;;;;;3.10;1.80;;;8.80;99.90;;;;;;5024192;28;20550;-45
2024/01/06 06:05:42;;;;;;;3.10;1.60;;;8.80;99.90;;;;;;5030109;28;20451;-46
2024/01/06 06:08:11;;;;;;;2.20;1.63;;;8.80;99.90;;;;;;5025078;28;20949;-45
2024/01/06 06:10:51;;;;;;;2.67;2.00;;;8.80;99.90;;;;;;5030345;28;20483;-46
2024/01/06 06:13:20;;;;;;;3.33;2.00;;;8.70;99.90;;;;;;5024003;28;20467;-48
2024/01/06 06:15:48;;;;;;;2.80;1.87;;;8.70;99.90;;;;;;5026929;28;20442;-47
2024/01/06 06:18:16;;;;;;;2.90;2.03;;;8.70;99.90;;;;;;5030294;28;20464;-45
2024/01/06 06:20:45;;;;;;;2.27;1.50;;;8.70;99.90;;;;;;5023811;28;20469;-47
2024/01/06 06:23:14;;;;;;;3.73;1.53;;;8.70;99.90;;;;;;5025517;28;20973;-49
2024/01/06 06:25:42;;;;;;;2.53;1.77;;;8.70;99.90;;;;;;5028885;28;20747;-47
2024/01/06 06:28:11;;;;;;;2.27;1.57;;;8.70;99.90;;;;;;5022823;28;20905;-47
2024/01/06 06:30:39;;;;;;;2.70;1.77;;;8.70;99.90;;;;;;5011563;28;20833;-49
2024/01/06 06:33:08;;;;;;;2.90;1.67;;;8.70;99.90;;;;;;4995357;28;20464;-47
2024/01/06 06:35:36;;;;;;;2.70;1.40;;;8.70;99.90;;;;;;5027831;28;20439;-46
2024/01/06 06:38:05;;;;;;;2.13;1.47;;;8.70;99.90;;;;;;5028768;28;20479;-46
2024/01/06 06:40:34;;;;;;;2.60;1.77;;;8.70;99.90;;;;;;5032535;28;20530;-47
2024/01/06 06:43:02;;;;;;;1.90;1.20;;;8.70;99.90;;;;;;5031333;28;20849;-47
2024/01/06 06:45:30;;;;;;;3.00;1.83;;;8.70;99.90;;;;;;5028641;28;20834;-45
2024/01/06 06:47:59;;;;;;;2.77;1.73;;;8.70;99.90;;;;;;5030424;28;22532;-45
2024/01/06 06:50:27;;;;;;;4.43;1.60;;;8.70;99.90;;;;;;5030887;28;21109;-45
2024/01/06 06:52:55;;;;;;;2.87;1.67;;;8.70;99.90;;;;;;5026637;28;20476;-48
2024/01/06 06:55:23;;;;;;;3.20;1.97;;;8.70;99.90;;;;;;5026342;28;20706;-47
2024/01/06 06:57:52;;;;;;;3.50;1.97;;;8.70;99.90;;;;;;5028392;28;20452;-49
2024/01/06 07:00:21;;;;;;;2.53;1.67;;;8.70;99.90;;;;;;5027585;28;20989;-46
2024/01/06 07:02:50;;;;;;;3.10;1.77;;;8.70;99.90;;;;;;5028115;28;20997;-46
2024/01/06 07:05:18;;;;;;;2.67;1.80;;;8.70;99.90;;;;;;5013667;28;20949;-47
2024/01/06 07:07:46;;;;;;;2.90;1.90;;;8.70;99.90;;;;;;5028585;28;20464;-46
2024/01/06 07:10:15;;;;;;;2.60;1.70;;;8.70;99.90;;;;;;5029937;28;20448;-44
2024/01/06 07:12:43;;;;;;;3.50;2.20;;;8.70;99.90;;;;;;5029548;28;20460;-45
2024/01/06 07:15:12;;;;;;;3.07;1.90;;;8.70;99.90;;;;;;5026591;28;20447;-44
2024/01/06 07:17:40;;;;;;;3.40;2.07;;;8.70;99.90;;;;;;5029212;28;20521;-44
2024/01/06 07:20:09;;;;;;;3.00;1.63;;;8.70;99.90;;;;;;5023781;28;20464;-44
2024/01/06 07:22:37;;;;;;;3.10;2.27;;;8.70;99.90;;;;;;5023655;28;20472;-44
2024/01/06 07:25:07;;;;;;;2.47;1.87;;;8.70;99.90;;;;;;5019609;28;20466;-45
2024/01/06 07:27:35;;;;;;;3.00;2.23;;;8.70;99.90;;;;;;5028922;28;20474;-44
2024/01/06 07:30:04;;;;;;;3.23;1.97;;;8.70;99.90;;;;;;5026470;28;20460;-44
2024/01/06 07:32:34;;;;;;;3.07;1.70;;;8.70;99.90;;;;;;5026108;28;20463;-45
2024/01/06 07:35:03;;;;;;;3.90;1.87;;;8.70;99.90;;;;;;5025535;28;21087;-45
2024/01/06 07:37:35;;;;;;;3.87;2.43;;;8.70;99.90;;;;;;5022719;28;20533;-45
2024/01/06 07:40:03;;;;;;;2.30;1.73;;;8.70;99.90;;;;;;5028682;28;20482;-44
2024/01/06 07:42:31;;;;;;;3.23;2.20;;;8.70;99.90;;;;;;5011277;28;21026;-45
2024/01/06 07:44:59;;;;;;;2.90;2.23;;;8.70;99.90;;;;;;5025670;28;20942;-44
2024/01/06 07:47:27;;;;;;;2.97;1.83;;;8.70;99.90;;;;;;5022759;28;20464;-44
2024/01/06 07:49:58;;;;;;;3.17;1.83;;;8.70;99.90;;;;;;5025368;28;20459;-44
2024/01/06 07:52:26;;;;;;;3.10;2.07;;;8.70;99.90;;;;;;5028129;28;21000;-45
2024/01/06 07:54:57;;;;;;;4.10;2.83;;;8.70;99.90;;;;;;5027440;28;20439;-44
2024/01/06 07:57:25;;;;;;;3.13;2.47;;;8.70;99.90;;;;;;5026939;28;20468;-42
2024/01/06 07:59:53;;;;;;;3.90;2.07;;;8.70;99.90;;;;;;5025454;28;20535;-44
2024/01/06 08:02:21;;;;;;;4.70;2.87;;;8.70;99.90;;;;;;5028480;28;20459;-44
2024/01/06 08:04:49;;;;;;;3.67;2.43;;;8.70;99.90;;;;;;5026604;28;20480;-44
2024/01/06 08:07:18;;;;;;;3.40;2.20;;;8.70;99.90;;;;;;5011050;28;20455;-43
2024/01/06 08:09:47;;;;;;;2.80;2.20;;;8.70;99.90;;;;;;5022082;28;20452;-45
2024/01/06 08:12:16;;;;;;;2.97;2.20;;;8.70;99.90;;;;;;5009426;28;20535;-44
2024/01/06 08:14:44;;;;;;;2.40;1.80;;;8.70;99.90;;;;;;5025289;28;20456;-44
2024/01/06 08:17:12;;;;;;;2.70;1.90;;;8.60;99.90;;;;;;5028513;28;20461;-43
2024/01/06 08:19:46;;;;;;;2.53;1.83;;;8.60;99.90;;;;;;5028086;28;20506;-44
2024/01/06 08:22:15;;;;;;;4.53;2.50;;;8.60;99.90;;;;;;5022065;28;21027;-44
2024/01/06 08:24:44;;;;;;;3.40;2.00;;;8.60;99.90;;;;;;5020700;28;20476;-45
2024/01/06 08:27:12;;;;;;;4.67;2.60;;;8.60;99.90;;;;;;5026021;28;20886;-44
2024/01/06 08:29:40;;;;;;;3.03;2.20;;;8.70;99.90;;;;;;5018230;28;20527;-44
2024/01/06 08:32:10;;;;;;;3.70;2.60;;;8.60;99.90;;;;;;5015283;28;20529;-45
2024/01/06 08:34:38;;;;;;;3.55;2.15;;;8.60;99.90;;;;;;5020115;28;20444;-45
2024/01/06 08:37:06;;;;;;;3.03;2.23;;;8.60;99.90;;;;;;5016963;28;20217;-45
2024/01/06 08:39:35;;;;;;;2.73;1.97;;;8.60;99.90;;;;;;5022373;28;20670;-44
2024/01/06 08:42:05;;;;;;;3.70;2.50;;;8.60;99.90;;;;;;5019668;28;20456;-44
2024/01/06 08:44:33;;;;;;;2.60;2.10;;;8.60;99.90;;;;;;5024999;28;20475;-45
2024/01/06 08:47:01;;;;;;;3.40;1.83;;;8.60;99.90;;;;;;5026865;28;21462;-45
2024/01/06 08:49:29;;;;;;;3.50;2.27;;;8.60;99.90;;;;;;5028479;28;20443;-44
2024/01/06 08:51:58;;;;;;;2.73;1.83;;;8.60;99.90;;;;;;5016205;28;20504;-45
2024/01/06 08:54:27;;;;;;;3.13;1.60;;;8.60;99.90;;;;;;5018764;28;20443;-44
2024/01/06 08:56:56;;;;;;;3.43;2.30;;;8.60;99.90;;;;;;5026198;28;20624;-44
2024/01/06 08:59:26;;;;;;;2.70;1.90;;;8.60;99.90;;;;;;5024586;28;20971;-44
2024/01/06 09:01:54;;;;;;;3.70;2.10;;;8.60;99.90;;;;;;5003670;28;20452;-44
2024/01/06 09:04:22;;;;;;;3.57;2.17;;;8.60;99.90;;;;;;5022424;28;20467;-45
2024/01/06 09:06:51;;;;;;;2.63;1.97;;;8.60;99.90;;;;;;5024120;28;20499;-44
2024/01/06 09:09:19;;;;;;;4.43;2.50;;;8.60;99.90;;;;;;5028212;28;20780;-46
2024/01/06 09:11:47;;;;;;;3.67;2.23;;;8.60;99.90;;;;;;5022906;28;20452;-45
2024/01/06 09:14:17;;;;;;;3.97;2.57;;;8.60;99.90;;;;;;5021100;28;20444;-43
2024/01/06 09:16:47;;;;;;;4.40;3.50;;;8.60;99.90;;;;;;5025523;28;20486;-44
2024/01/06 09:19:15;;;;;;;3.43;2.70;;;8.60;99.90;;;;;;5028010;28;20490;-44
2024/01/06 09:21:43;;;;;;;3.37;2.20;;;8.60;99.90;;;;;;5025112;28;20577;-43
2024/01/06 09:24:12;;;;;;;4.33;2.80;;;8.60;99.90;;;;;;5022709;28;20571;-44
2024/01/06 09:26:40;;;;;;;3.40;1.97;;;8.60;99.90;;;;;;5025828;28;20436;-44
2024/01/06 09:29:08;;;;;;;2.97;2.13;;;8.60;99.90;;;;;;5022683;28;20466;-44
2024/01/06 09:31:38;;;;;;;3.00;2.30;;;8.60;99.90;;;;;;5024682;28;20451;-44
2024/01/06 09:34:12;;;;;;;3.97;2.60;;;8.60;99.90;;;;;;5025855;28;20772;-45
2024/01/06 09:36:40;;;;;;;3.10;1.90;;;8.60;99.90;;;;;;5026576;28;20432;-44
2024/01/06 09:39:08;;;;;;;3.53;2.10;;;8.60;99.90;;;;;;5005423;28;20443;-44
2024/01/06 09:41:36;;;;;;;2.83;1.90;;;8.60;99.90;;;;;;5025443;28;20491;-44
2024/01/06 09:44:05;;;;;;;2.80;2.03;;;8.60;99.90;;;;;;5020686;28;20559;-45
2024/01/06 09:46:35;;;;;;;3.60;2.57;;;8.60;99.90;;;;;;5022622;28;20427;-45
2024/01/06 09:49:03;;;;;;;3.07;2.23;;;8.60;99.90;;;;;;4997445;28;20483;-44
2024/01/06 09:51:34;;;;;;;10.67;7.47;;;8.60;99.90;;;;;;5024098;28;21046;-44
2024/01/06 09:54:08;;;;;;;9.50;5.70;;;8.60;99.90;;;;;;5023566;28;20474;-45
2024/01/06 09:56:37;;;;;;;6.97;4.53;;;8.50;99.90;;;;;;5018436;28;20938;-44
2024/01/06 09:59:05;;;;;;;6.63;4.37;;;8.50;99.90;;;;;;5020589;28;20531;-44
2024/01/06 10:01:33;;;;;;;7.83;5.67;;;8.50;99.90;;;;;;5023212;28;20850;-44
2024/01/06 10:04:02;;;;;;;5.10;4.30;;;8.50;99.90;;;;;;5022346;28;20479;-44
2024/01/06 10:06:33;;;;;;;7.43;4.67;;;8.50;99.90;;;;;;5021465;28;20456;-43
2024/01/06 10:09:01;;;;;;;6.93;4.20;;;8.60;99.90;;;;;;5021890;28;20537;-44
2024/01/06 10:11:30;;;;;;;5.37;4.30;;;8.60;99.90;;;;;;5014171;28;20511;-44
2024/01/06 10:13:58;;;;;;;9.97;5.80;;;8.60;99.90;;;;;;5013424;28;20484;-44
2024/01/06 10:16:26;;;;;;;7.87;5.07;;;8.60;99.90;;;;;;5025481;28;20566;-44
2024/01/06 10:18:54;;;;;;;6.77;5.03;;;8.60;99.90;;;;;;5019763;28;20478;-44
2024/01/06 10:21:23;;;;;;;8.17;5.20;;;8.60;99.90;;;;;;5017641;28;20560;-46
2024/01/06 10:23:55;;;;;;;7.23;4.60;;;8.60;99.90;;;;;;5014703;28;20507;-45
2024/01/06 10:26:23;;;;;;;6.90;4.67;;;8.60;99.90;;;;;;5020728;28;20511;-45
2024/01/06 10:28:51;;;;;;;5.67;4.30;;;8.60;99.90;;;;;;5017939;28;20480;-45
2024/01/06 10:31:19;;;;;;;6.57;5.07;;;8.60;99.90;;;;;;5022487;28;20459;-43
2024/01/06 10:33:48;;;;;;;5.90;4.73;;;8.60;99.90;;;;;;5025244;28;20466;-44
2024/01/06 10:36:17;;;;;;;5.90;4.10;;;8.60;99.90;;;;;;5028042;28;21158;-45
2024/01/06 10:38:46;;;;;;;6.10;4.80;;;8.60;99.90;;;;;;5026626;28;21068;-44
2024/01/06 10:41:17;;;;;;;10.13;5.20;;;8.60;99.90;;;;;;5029819;28;20462;-45
2024/01/06 10:43:46;;;;;;;6.00;4.30;;;8.60;99.90;;;;;;5020686;28;20475;-46
2024/01/06 10:46:16;;;;;;;10.43;4.13;;;8.60;99.90;;;;;;5028820;28;20813;-46
2024/01/06 10:48:46;;;;;;;6.77;4.30;;;8.60;99.90;;;;;;5024123;28;20470;-50
2024/01/06 10:51:15;;;;;;;5.70;4.23;;;8.60;99.90;;;;;;5023131;28;20448;-44
2024/01/06 10:53:44;;;;;;;5.93;4.60;;;8.60;99.90;;;;;;5009031;28;20484;-47
2024/01/06 10:56:12;;;;;;;5.90;4.23;;;8.60;99.90;;;;;;5028861;28;20432;-46
2024/01/06 10:58:47;;;;;;;7.40;3.90;;;8.60;99.90;;;;;;5015534;28;20483;-45
2024/01/06 11:01:16;;;;;;;5.77;3.97;;;8.70;99.90;;;;;;5023656;28;20443;-45
2024/01/06 11:03:52;;;;;;;4.63;3.30;;;8.70;99.90;;;;;;5025616;28;20901;-47
2024/01/06 11:06:22;;;;;;;5.57;4.10;;;8.70;99.90;;;;;;5017973;28;20469;-44
2024/01/06 11:08:56;;;;;;;7.10;5.17;;;8.70;99.90;;;;;;5023064;28;20471;-44
2024/01/06 11:11:24;;;;;;;5.00;3.90;;;8.60;99.90;;;;;;5028319;28;20534;-44
2024/01/06 11:13:54;;;;;;;4.83;3.57;;;8.70;99.90;;;;;;5019560;28;21069;-44
2024/01/06 11:16:38;;;;;;;4.20;3.47;;;8.70;99.90;;;;;;5026149;28;20432;-45
2024/01/06 11:19:46;;;;;;;4.23;3.03;;;8.70;99.90;;;;;;5027926;28;20947;-44
2024/01/06 11:22:22;;;;;;;5.70;3.47;;;8.70;99.90;;;;;;5023783;28;20452;-44
2024/01/06 11:24:51;;;;;;;4.50;3.50;;;8.70;99.90;;;;;;5018313;28;20529;-44
2024/01/06 11:27:20;;;;;;;4.73;3.53;;;8.70;99.90;;;;;;5025254;28;20487;-44
2024/01/06 11:29:55;;;;;;;5.50;3.10;;;8.70;99.90;;;;;;5017565;28;20455;-44
2024/01/06 11:32:30;;;;;;;3.93;2.70;;;8.70;99.90;;;;;;5025104;28;20460;-45
2024/01/06 11:35:06;;;;;;;3.90;2.80;;;8.70;99.90;;;;;;5022920;28;20419;-44
2024/01/06 11:37:51;;;;;;;3.72;2.70;;;8.70;99.90;;;;;;5023341;28;20463;-44
2024/01/06 11:40:25;;;;;;;3.90;2.97;;;8.70;99.90;;;;;;5024592;28;20701;-44
2024/01/06 11:43:02;;;;;;;4.20;3.63;;;8.70;99.90;;;;;;5025211;28;20460;-45
2024/01/06 11:45:32;;;;;;;4.27;3.20;;;8.70;99.90;;;;;;5022976;28;20456;-44
2024/01/06 11:48:03;;;;;;;4.90;3.13;;;8.70;99.90;;;;;;5024931;28;20965;-44
2024/01/06 11:50:33;;;;;;;3.53;3.00;;;8.70;99.90;;;;;;5024107;28;20996;-44
2024/01/06 11:53:02;;;;;;;4.30;2.60;;;8.70;99.90;;;;;;5024199;28;20459;-43
2024/01/06 11:55:31;;;;;;;3.87;2.90;;;8.70;99.90;;;;;;5018387;28;20445;-44
2024/01/06 11:58:02;;;;;;;3.90;2.53;;;8.70;99.90;;;;;;5023005;28;21039;-44
2024/01/06 12:00:36;;;;;;;3.60;2.43;;;8.70;99.90;;;;;;5023150;28;20476;-44
2024/01/06 12:03:06;;;;;;;3.60;2.70;;;8.70;99.90;;;;;;5026720;28;20602;-44
2024/01/06 12:05:34;;;;;;;4.30;2.90;;;8.70;99.90;;;;;;5023509;28;20459;-44
2024/01/06 12:08:06;;;;;;;2.97;2.43;;;8.70;99.90;;;;;;5019267;28;20476;-44
2024/01/06 12:10:35;;;;;;;2.60;2.40;;;8.70;99.90;;;;;;5023359;28;20554;-45
2024/01/06 12:13:05;;;;;;;2.70;1.93;;;8.70;99.90;;;;;;5022416;28;20491;-44
2024/01/06 12:15:37;;;;;;;4.03;2.73;;;8.70;99.90;;;;;;5024296;28;20837;-44
2024/01/06 12:18:07;;;;;;;3.73;2.70;;;8.70;99.90;;;;;;5023156;28;20459;-44
2024/01/06 12:20:36;;;;;;;3.43;2.40;;;8.70;99.90;;;;;;5028491;28;20455;-44
2024/01/06 12:23:05;;;;;;;4.00;2.40;;;8.70;99.90;;;;;;5027124;28;20463;-44
2024/01/06 12:25:36;;;;;;;3.50;2.57;;;8.70;99.90;;;;;;5026208;28;20476;-45
2024/01/06 12:28:08;;;;;;;3.50;2.53;;;8.70;99.90;;;;;;5023881;28;20467;-45
2024/01/06 12:30:39;;;;;;;3.73;2.00;;;8.70;99.90;;;;;;5023429;28;20499;-45
2024/01/06 12:33:08;;;;;;;2.67;2.10;;;8.70;99.90;;;;;;5027045;28;20467;-45
2024/01/06 12:35:36;;;;;;;3.27;2.30;;;8.70;99.90;;;;;;5027975;28;20429;-44
2024/01/06 12:38:06;;;;;;;2.30;1.70;;;8.70;99.90;;;;;;5023735;28;20525;-45
2024/01/06 12:40:36;;;;;;;3.20;1.83;;;8.70;99.90;;;;;;5006306;28;20984;-46
2024/01/06 12:43:05;;;;;;;2.70;1.67;;;8.70;99.90;;;;;;5021903;28;20500;-46
2024/01/06 12:45:33;;;;;;;3.30;2.40;;;8.70;99.90;;;;;;5021039;28;20455;-46
2024/01/06 12:48:03;;;;;;;3.27;2.20;;;8.70;99.90;;;;;;5026761;28;20499;-46
2024/01/06 12:50:32;;;;;;;3.43;1.93;;;8.60;99.90;;;;;;5028343;28;20488;-48
2024/01/06 12:53:00;;;;;;;3.47;2.17;;;8.60;99.90;;;;;;5020866;28;20827;-44
2024/01/06 12:55:28;;;;;;;4.47;2.00;;;8.60;99.90;;;;;;5015189;28;20457;-45
2024/01/06 12:57:56;;;;;;;3.13;2.20;;;8.60;99.90;;;;;;5024730;28;20925;-44
2024/01/06 13:00:25;;;;;;;2.63;2.03;;;8.60;99.90;;;;;;5019886;28;20985;-43
2024/01/06 13:02:57;;;;;;;3.20;2.27;;;8.60;99.90;;;;;;5019797;28;20471;-45
2024/01/06 13:05:27;;;;;;;2.80;2.03;;;8.60;99.90;;;;;;5018625;28;20467;-44
2024/01/06 13:07:55;;;;;;;3.07;2.13;;;8.60;99.90;;;;;;5026740;28;20575;-44